createdAt,value
2017-03-23T00:00:07.119Z,956.06
2017-03-23T00:00:47.691Z,956.06
2017-03-23T00:01:28.278Z,956.05
2017-03-23T00:02:08.852Z,956.04
2017-03-23T00:02:49.432Z,956.07
2017-03-23T00:03:30.012Z,956.05
2017-03-23T00:05:47.938Z,956.1
2017-03-23T00:06:28.519Z,956.15
2017-03-23T00:07:09.099Z,956.15
2017-03-23T00:07:49.683Z,956.18
2017-03-23T00:08:30.267Z,956.17
2017-03-23T00:09:10.835Z,956.18
2017-03-23T00:09:51.414Z,956.17
2017-03-23T00:10:31.997Z,956.18
2017-03-23T00:12:49.931Z,956.18
2017-03-23T00:13:30.500Z,956.18
2017-03-23T00:14:11.091Z,956.19
2017-03-23T00:14:51.675Z,956.21
2017-03-23T00:15:32.252Z,956.21
2017-03-23T00:16:12.825Z,956.17
2017-03-23T00:16:53.406Z,956.21
2017-03-23T00:17:33.987Z,956.22
2017-03-23T00:18:14.569Z,956.21
2017-03-23T00:18:55.149Z,956.21
2017-03-23T00:19:35.720Z,956.2
2017-03-23T00:20:16.302Z,956.25
2017-03-23T00:20:56.883Z,956.27
2017-03-23T00:21:37.451Z,956.31
2017-03-23T00:22:18.047Z,956.31
2017-03-23T00:22:58.618Z,956.31
2017-03-23T00:23:39.200Z,956.35
2017-03-23T00:24:19.781Z,956.33
2017-03-23T00:25:00.361Z,956.35
2017-03-23T00:25:40.927Z,956.35
2017-03-23T00:26:21.502Z,956.36
2017-03-23T00:27:16.825Z,956.4
2017-03-23T00:27:57.405Z,956.38
2017-03-23T00:28:37.974Z,956.35
2017-03-23T00:29:18.559Z,956.39
2017-03-23T00:29:59.128Z,956.36
2017-03-23T00:30:39.709Z,956.39
2017-03-23T00:31:20.282Z,956.39
2017-03-23T00:32:00.869Z,956.43
2017-03-23T00:32:41.450Z,956.45
2017-03-23T00:33:22.033Z,956.52
2017-03-23T00:34:17.606Z,956.48
2017-03-23T00:34:58.190Z,956.5
2017-03-23T00:35:38.768Z,956.51
2017-03-23T00:36:19.343Z,956.51
2017-03-23T00:36:59.906Z,956.59
2017-03-23T00:37:40.494Z,956.63
2017-03-23T00:38:21.069Z,956.66
2017-03-23T00:39:01.640Z,956.66
2017-03-23T00:39:42.217Z,956.7
2017-03-23T00:40:22.795Z,956.71
2017-03-23T00:41:03.379Z,956.73
2017-03-23T00:41:43.959Z,956.7
2017-03-23T00:42:27.218Z,956.68
2017-03-23T00:44:24.930Z,956.75
2017-03-23T00:45:05.513Z,956.76
2017-03-23T00:45:46.096Z,956.72
2017-03-23T00:46:26.673Z,956.74
2017-03-23T00:47:07.262Z,956.69
2017-03-23T00:47:47.838Z,956.69
2017-03-23T00:48:28.428Z,956.69
2017-03-23T00:49:09.006Z,956.67
2017-03-23T00:50:04.497Z,956.71
2017-03-23T00:50:45.073Z,956.74
2017-03-23T00:53:03.007Z,956.82
2017-03-23T00:53:43.588Z,956.82
2017-03-23T00:54:24.161Z,956.84
2017-03-23T00:55:04.744Z,956.84
2017-03-23T00:55:45.325Z,956.8
2017-03-23T00:56:25.905Z,956.82
2017-03-23T00:57:06.490Z,956.81
2017-03-23T00:57:47.074Z,956.82
2017-03-23T00:58:27.652Z,956.8
2017-03-23T00:59:08.224Z,956.78
2017-03-23T00:59:48.806Z,956.73
2017-03-23T01:00:29.392Z,956.71
2017-03-23T01:01:09.974Z,956.72
2017-03-23T01:01:50.556Z,956.7
2017-03-23T01:02:31.137Z,956.72
2017-03-23T01:03:11.706Z,956.72
2017-03-23T01:03:52.282Z,956.71
2017-03-23T01:04:32.864Z,956.67
2017-03-23T01:05:13.441Z,956.71
2017-03-23T01:06:05.008Z,956.71
2017-03-23T01:06:45.578Z,956.74
2017-03-23T01:07:26.161Z,956.75
2017-03-23T01:08:06.743Z,956.76
2017-03-23T01:08:47.322Z,956.79
2017-03-23T01:09:27.898Z,956.75
2017-03-23T01:10:08.484Z,956.73
2017-03-23T01:10:49.063Z,956.75
2017-03-23T01:11:29.649Z,956.75
2017-03-23T01:12:10.227Z,956.74
2017-03-23T01:12:50.811Z,956.73
2017-03-23T01:13:31.386Z,956.73
2017-03-23T01:14:11.963Z,956.8
2017-03-23T01:14:52.529Z,956.77
2017-03-23T01:15:33.107Z,956.75
2017-03-23T01:16:13.686Z,956.75
2017-03-23T01:16:54.274Z,956.73
2017-03-23T01:17:34.865Z,956.77
2017-03-23T01:18:15.442Z,956.76
2017-03-23T01:18:56.016Z,956.75
2017-03-23T01:19:36.611Z,956.78
2017-03-23T01:20:17.193Z,956.76
2017-03-23T01:21:12.296Z,956.76
2017-03-23T01:21:52.883Z,956.77
2017-03-23T01:22:33.462Z,956.81
2017-03-23T01:23:14.051Z,956.78
2017-03-23T01:23:54.629Z,956.79
2017-03-23T01:24:35.214Z,956.82
2017-03-23T01:25:15.800Z,956.88
2017-03-23T01:25:56.384Z,956.84
2017-03-23T01:26:36.962Z,956.85
2017-03-23T01:27:17.541Z,956.85
2017-03-23T01:27:58.123Z,956.88
2017-03-23T01:28:38.698Z,956.89
2017-03-23T01:29:19.276Z,956.89
2017-03-23T01:29:59.847Z,956.91
2017-03-23T01:30:40.437Z,956.88
2017-03-23T01:31:21.021Z,956.92
2017-03-23T01:32:01.604Z,956.89
2017-03-23T01:32:42.178Z,956.87
2017-03-23T01:33:22.764Z,956.86
2017-03-23T01:34:03.351Z,956.86
2017-03-23T01:34:43.922Z,956.87
2017-03-23T01:35:24.503Z,956.87
2017-03-23T01:36:05.087Z,956.91
2017-03-23T01:36:45.671Z,956.89
2017-03-23T01:37:26.248Z,956.88
2017-03-23T01:39:23.974Z,956.92
2017-03-23T01:40:04.559Z,956.88
2017-03-23T01:40:45.139Z,956.94
2017-03-23T01:43:03.060Z,956.95
2017-03-23T01:43:43.642Z,956.94
2017-03-23T01:44:24.220Z,956.92
2017-03-23T01:45:04.791Z,956.92
2017-03-23T01:45:45.373Z,956.93
2017-03-23T01:46:25.957Z,956.98
2017-03-23T01:47:06.542Z,956.98
2017-03-23T01:47:47.123Z,956.99
2017-03-23T01:48:27.706Z,957.01
2017-03-23T01:49:08.287Z,956.98
2017-03-23T01:49:48.883Z,957.04
2017-03-23T01:50:29.457Z,957
2017-03-23T01:51:10.039Z,957
2017-03-23T01:51:50.624Z,957.03
2017-03-23T01:52:31.208Z,957.02
2017-03-23T01:53:11.788Z,957
2017-03-23T01:53:52.365Z,957
2017-03-23T01:54:32.944Z,956.98
2017-03-23T01:55:13.561Z,957.01
2017-03-23T01:55:55.835Z,956.97
2017-03-23T01:56:36.412Z,956.97
2017-03-23T01:57:16.989Z,957
2017-03-23T01:57:57.570Z,957
2017-03-23T01:58:38.155Z,956.99
2017-03-23T01:59:18.726Z,957.02
2017-03-23T01:59:59.298Z,957.04
2017-03-23T02:00:39.864Z,957.01
2017-03-23T02:01:20.446Z,957.04
2017-03-23T02:02:01.031Z,956.99
2017-03-23T02:02:41.612Z,957.06
2017-03-23T02:03:22.195Z,957
2017-03-23T02:04:02.774Z,956.98
2017-03-23T02:04:43.361Z,956.96
2017-03-23T02:05:23.946Z,956.97
2017-03-23T02:06:04.524Z,956.96
2017-03-23T02:06:45.125Z,956.97
2017-03-23T02:07:25.680Z,956.96
2017-03-23T02:08:06.257Z,956.96
2017-03-23T02:08:46.839Z,957
2017-03-23T02:09:27.425Z,956.96
2017-03-23T02:11:20.022Z,956.97
2017-03-23T02:12:00.598Z,956.96
2017-03-23T02:12:41.183Z,956.94
2017-03-23T02:13:21.770Z,956.93
2017-03-23T02:14:02.350Z,956.91
2017-03-23T02:14:42.920Z,956.94
2017-03-23T02:15:23.511Z,956.93
2017-03-23T02:16:04.083Z,956.94
2017-03-23T02:16:44.662Z,956.91
2017-03-23T02:17:26.520Z,956.92
2017-03-23T02:18:06.399Z,956.92
2017-03-23T02:18:46.967Z,956.95
2017-03-23T02:19:27.534Z,956.92
2017-03-23T02:20:08.111Z,956.9
2017-03-23T02:20:48.692Z,956.92
2017-03-23T02:21:29.273Z,956.94
2017-03-23T02:22:09.858Z,956.89
2017-03-23T02:22:50.438Z,956.88
2017-03-23T02:23:31.016Z,956.9
2017-03-23T02:24:12.556Z,956.86
2017-03-23T02:24:52.657Z,956.86
2017-03-23T02:25:33.234Z,956.88
2017-03-23T02:26:13.816Z,956.88
2017-03-23T02:26:54.396Z,956.89
2017-03-23T02:27:34.972Z,956.87
2017-03-23T02:28:15.556Z,956.89
2017-03-23T02:28:56.141Z,956.88
2017-03-23T02:29:36.722Z,956.93
2017-03-23T02:30:17.301Z,956.89
2017-03-23T02:30:57.887Z,956.92
2017-03-23T02:31:38.455Z,956.91
2017-03-23T02:32:19.035Z,956.91
2017-03-23T02:32:59.614Z,956.9
2017-03-23T02:33:40.196Z,956.91
2017-03-23T02:34:20.777Z,956.89
2017-03-23T02:35:01.354Z,956.85
2017-03-23T02:35:41.935Z,956.89
2017-03-23T02:36:22.508Z,956.92
2017-03-23T02:37:17.794Z,956.94
2017-03-23T02:37:58.369Z,956.95
2017-03-23T02:38:38.947Z,956.98
2017-03-23T02:39:20.308Z,956.99
2017-03-23T02:40:00.889Z,956.98
2017-03-23T02:40:41.457Z,957
2017-03-23T02:41:22.046Z,957.02
2017-03-23T02:42:02.628Z,957
2017-03-23T02:42:43.205Z,957
2017-03-23T02:43:23.795Z,957.02
2017-03-23T02:44:04.368Z,957.02
2017-03-23T02:44:44.939Z,957.03
2017-03-23T02:45:25.525Z,957.02
2017-03-23T02:46:06.117Z,957.02
2017-03-23T02:46:46.690Z,957.02
2017-03-23T02:47:27.269Z,957.05
2017-03-23T02:48:07.842Z,957.02
2017-03-23T02:48:48.426Z,957.02
2017-03-23T02:49:28.993Z,956.98
2017-03-23T02:50:09.579Z,957
2017-03-23T02:50:50.150Z,957.01
2017-03-23T02:51:30.732Z,957.05
2017-03-23T02:52:11.312Z,956.99
2017-03-23T02:52:51.899Z,957
2017-03-23T02:53:32.478Z,957.04
2017-03-23T02:54:13.058Z,957.05
2017-03-23T02:55:08.424Z,957.06
2017-03-23T02:55:49.003Z,957.06
2017-03-23T02:56:29.586Z,957.11
2017-03-23T02:57:10.173Z,957.11
2017-03-23T02:57:50.758Z,957.08
2017-03-23T02:58:31.338Z,957.13
2017-03-23T02:59:11.920Z,957.12
2017-03-23T02:59:52.502Z,957.12
2017-03-23T03:00:33.097Z,957.12
2017-03-23T03:01:13.669Z,957.14
2017-03-23T03:01:54.253Z,957.14
2017-03-23T03:02:34.835Z,957.14
2017-03-23T03:03:15.410Z,957.15
2017-03-23T03:03:55.990Z,957.16
2017-03-23T03:04:36.564Z,957.13
2017-03-23T03:05:17.135Z,957.12
2017-03-23T03:05:57.717Z,957.13
2017-03-23T03:06:39.387Z,957.14
2017-03-23T03:07:19.963Z,957.13
2017-03-23T03:08:00.536Z,957.13
2017-03-23T03:08:41.123Z,957.11
2017-03-23T03:09:21.702Z,957.13
2017-03-23T03:10:02.284Z,957.09
2017-03-23T03:10:42.867Z,957.13
2017-03-23T03:11:23.442Z,957.12
2017-03-23T03:12:04.018Z,957.13
2017-03-23T03:12:44.601Z,957.15
2017-03-23T03:13:39.743Z,957.19
2017-03-23T03:14:20.333Z,957.19
2017-03-23T03:15:00.916Z,957.16
2017-03-23T03:15:41.497Z,957.19
2017-03-23T03:16:22.082Z,957.24
2017-03-23T03:17:02.666Z,957.25
2017-03-23T03:17:43.248Z,957.26
2017-03-23T03:18:23.834Z,957.3
2017-03-23T03:19:04.419Z,957.3
2017-03-23T03:19:44.999Z,957.3
2017-03-23T03:20:25.576Z,957.31
2017-03-23T03:21:06.150Z,957.37
2017-03-23T03:21:46.727Z,957.33
2017-03-23T03:22:27.323Z,957.32
2017-03-23T03:23:07.902Z,957.35
2017-03-23T03:23:48.480Z,957.31
2017-03-23T03:24:29.065Z,957.33
2017-03-23T03:25:09.646Z,957.35
2017-03-23T03:25:50.222Z,957.31
2017-03-23T03:26:30.806Z,957.27
2017-03-23T03:27:11.381Z,957.25
2017-03-23T03:27:51.980Z,957.22
2017-03-23T03:28:32.546Z,957.23
2017-03-23T03:29:13.121Z,957.21
2017-03-23T03:29:53.708Z,957.21
2017-03-23T03:30:34.285Z,957.19
2017-03-23T03:31:14.864Z,957.2
2017-03-23T03:31:55.443Z,957.16
2017-03-23T03:32:36.023Z,957.2
2017-03-23T03:33:16.605Z,957.18
2017-03-23T03:33:57.180Z,957.23
2017-03-23T03:34:37.757Z,957.23
2017-03-23T03:35:18.346Z,957.22
2017-03-23T03:35:58.926Z,957.21
2017-03-23T03:36:39.524Z,957.22
2017-03-23T03:37:20.108Z,957.22
2017-03-23T03:38:00.692Z,957.22
2017-03-23T03:38:41.270Z,957.25
2017-03-23T03:39:21.851Z,957.28
2017-03-23T03:40:02.428Z,957.28
2017-03-23T03:40:43.004Z,957.3
2017-03-23T03:41:23.581Z,957.33
2017-03-23T03:42:04.160Z,957.34
2017-03-23T03:42:44.722Z,957.33
2017-03-23T03:43:25.306Z,957.33
2017-03-23T03:44:05.892Z,957.33
2017-03-23T03:44:46.475Z,957.33
2017-03-23T03:45:27.056Z,957.33
2017-03-23T03:46:07.621Z,957.32
2017-03-23T03:46:48.196Z,957.35
2017-03-23T03:47:28.779Z,957.33
2017-03-23T03:48:23.938Z,957.36
2017-03-23T03:49:04.524Z,957.37
2017-03-23T03:49:45.106Z,957.37
2017-03-23T03:50:25.703Z,957.39
2017-03-23T03:51:06.280Z,957.39
2017-03-23T03:51:46.850Z,957.38
2017-03-23T03:52:27.436Z,957.41
2017-03-23T03:53:08.021Z,957.42
2017-03-23T03:53:48.761Z,957.43
2017-03-23T03:54:29.410Z,957.42
2017-03-23T03:55:10.116Z,957.39
2017-03-23T03:55:50.700Z,957.43
2017-03-23T03:56:42.045Z,957.42
2017-03-23T03:57:22.632Z,957.43
2017-03-23T03:58:03.214Z,957.41
2017-03-23T03:58:43.797Z,957.38
2017-03-23T03:59:24.382Z,957.38
2017-03-23T04:00:05.078Z,957.33
2017-03-23T04:00:45.658Z,957.33
2017-03-23T04:01:26.228Z,957.35
2017-03-23T04:02:06.812Z,957.34
2017-03-23T04:02:47.395Z,957.29
2017-03-23T04:03:27.962Z,957.36
2017-03-23T04:04:08.553Z,957.37
2017-03-23T04:04:49.137Z,957.37
2017-03-23T04:05:29.778Z,957.41
2017-03-23T04:06:10.451Z,957.42
2017-03-23T04:06:51.106Z,957.4
2017-03-23T04:07:32.067Z,957.4
2017-03-23T04:08:12.816Z,957.41
2017-03-23T04:08:53.756Z,957.38
2017-03-23T04:09:34.331Z,957.39
2017-03-23T04:10:14.911Z,957.32
2017-03-23T04:10:55.936Z,957.3
2017-03-23T04:11:36.739Z,957.3
2017-03-23T04:12:17.505Z,957.29
2017-03-23T04:12:58.082Z,957.33
2017-03-23T04:13:38.660Z,957.3
2017-03-23T04:14:19.227Z,957.3
2017-03-23T04:14:59.810Z,957.3
2017-03-23T04:15:40.387Z,957.32
2017-03-23T04:16:21.164Z,957.33
2017-03-23T04:17:01.744Z,957.32
2017-03-23T04:17:42.322Z,957.37
2017-03-23T04:18:23.293Z,957.36
2017-03-23T04:19:03.871Z,957.36
2017-03-23T04:19:44.489Z,957.35
2017-03-23T04:20:25.069Z,957.33
2017-03-23T04:21:05.658Z,957.31
2017-03-23T04:21:46.246Z,957.36
2017-03-23T04:22:27.049Z,957.32
2017-03-23T04:23:07.638Z,957.34
2017-03-23T04:23:48.210Z,957.34
2017-03-23T04:24:28.911Z,957.33
2017-03-23T04:25:09.994Z,957.36
2017-03-23T04:25:50.702Z,957.4
2017-03-23T04:26:31.276Z,957.41
2017-03-23T04:27:11.854Z,957.46
2017-03-23T04:27:52.429Z,957.44
2017-03-23T04:28:33.002Z,957.47
2017-03-23T04:29:13.686Z,957.42
2017-03-23T04:29:54.330Z,957.45
2017-03-23T04:30:35.011Z,957.47
2017-03-23T04:31:16.417Z,957.44
2017-03-23T04:31:57.087Z,957.45
2017-03-23T04:32:37.907Z,957.43
2017-03-23T04:33:18.488Z,957.45
2017-03-23T04:33:59.285Z,957.46
2017-03-23T04:34:39.866Z,957.44
2017-03-23T04:35:20.539Z,957.47
2017-03-23T04:36:01.238Z,957.49
2017-03-23T04:36:41.914Z,957.45
2017-03-23T04:37:22.750Z,957.5
2017-03-23T04:38:03.333Z,957.51
2017-03-23T04:38:43.899Z,957.52
2017-03-23T04:39:24.488Z,957.52
2017-03-23T04:40:05.263Z,957.54
2017-03-23T04:40:46.024Z,957.51
2017-03-23T04:41:26.668Z,957.53
2017-03-23T04:42:07.638Z,957.53
2017-03-23T04:42:49.582Z,957.59
2017-03-23T04:43:29.311Z,957.56
2017-03-23T04:44:09.889Z,957.54
2017-03-23T04:44:50.913Z,957.59
2017-03-23T04:45:31.498Z,957.56
2017-03-23T04:46:12.247Z,957.58
2017-03-23T04:46:52.919Z,957.55
2017-03-23T04:47:33.949Z,957.51
2017-03-23T04:48:14.969Z,957.52
2017-03-23T04:48:55.780Z,957.52
2017-03-23T04:49:36.363Z,957.56
2017-03-23T04:50:16.945Z,957.55
2017-03-23T04:52:09.558Z,957.56
2017-03-23T04:52:50.143Z,957.58
2017-03-23T04:53:30.724Z,957.58
2017-03-23T04:54:11.296Z,957.61
2017-03-23T04:55:02.593Z,957.59
2017-03-23T04:55:43.258Z,957.58
2017-03-23T04:56:23.858Z,957.6
2017-03-23T04:57:04.416Z,957.57
2017-03-23T04:57:44.991Z,957.59
2017-03-23T04:58:25.556Z,957.57
2017-03-23T04:59:06.139Z,957.57
2017-03-23T04:59:46.720Z,957.55
2017-03-23T05:00:27.304Z,957.58
2017-03-23T05:01:07.880Z,957.61
2017-03-23T05:01:48.442Z,957.61
2017-03-23T05:02:29.013Z,957.66
2017-03-23T05:03:09.593Z,957.65
2017-03-23T05:03:50.168Z,957.68
2017-03-23T05:04:30.748Z,957.69
2017-03-23T05:05:11.336Z,957.68
2017-03-23T05:05:51.920Z,957.7
2017-03-23T05:06:32.488Z,957.73
2017-03-23T05:07:13.061Z,957.7
2017-03-23T05:07:53.641Z,957.73
2017-03-23T05:08:49.247Z,957.72
2017-03-23T05:09:29.814Z,957.72
2017-03-23T05:10:10.407Z,957.73
2017-03-23T05:10:50.989Z,957.72
2017-03-23T05:11:31.572Z,957.71
2017-03-23T05:12:12.156Z,957.71
2017-03-23T05:12:52.686Z,957.71
2017-03-23T18:15:52.059Z,970.29
2017-03-23T18:16:32.577Z,970.29
2017-03-23T18:17:13.108Z,970.29
2017-03-23T18:17:53.683Z,970.29
2017-03-23T18:18:34.407Z,970.26
2017-03-23T18:19:15.330Z,970.25
2017-03-23T18:19:56.256Z,970.28
2017-03-23T18:20:36.782Z,970.28
2017-03-23T18:21:17.371Z,970.36
2017-03-23T18:21:57.955Z,970.34
2017-03-23T18:22:38.572Z,970.36
2017-03-23T18:23:19.121Z,970.36
2017-03-23T18:23:59.713Z,970.38
2017-03-23T18:24:40.285Z,970.38
2017-03-23T18:25:20.886Z,970.38
2017-03-23T18:26:01.459Z,970.35
2017-03-23T18:26:42.026Z,970.33
2017-03-23T18:27:22.604Z,970.36
2017-03-23T18:28:03.170Z,970.38
2017-03-23T18:28:43.732Z,970.39
2017-03-23T18:29:24.317Z,970.38
2017-03-23T18:30:04.879Z,970.4
2017-03-23T18:30:45.451Z,970.38
2017-03-23T18:31:26.018Z,970.43
2017-03-23T18:32:06.600Z,970.43
2017-03-23T18:32:47.178Z,970.42
2017-03-23T18:33:27.749Z,970.43
2017-03-23T18:34:08.332Z,970.45
2017-03-23T18:34:48.899Z,970.48
2017-03-23T18:35:29.468Z,970.49
2017-03-23T18:36:10.043Z,970.45
2017-03-23T18:36:50.636Z,970.47
2017-03-23T18:37:31.213Z,970.44
2017-03-23T18:38:11.798Z,970.45
2017-03-23T18:38:52.376Z,970.44
2017-03-23T18:39:32.962Z,970.47
2017-03-23T18:40:13.541Z,970.46
2017-03-23T18:40:54.118Z,970.42
2017-03-23T18:41:34.699Z,970.43
2017-03-23T18:42:15.270Z,970.46
2017-03-23T18:42:55.824Z,970.44
2017-03-23T18:43:36.515Z,970.48
2017-03-23T18:44:17.103Z,970.49
2017-03-23T18:44:57.678Z,970.5
2017-03-23T18:45:38.286Z,970.49
2017-03-23T18:46:18.858Z,970.49
2017-03-23T18:46:59.435Z,970.53
2017-03-23T18:47:40.087Z,970.5
2017-03-23T18:48:20.664Z,970.52
2017-03-23T18:49:01.264Z,970.55
2017-03-23T18:49:42.103Z,970.56
2017-03-23T18:50:22.681Z,970.56
2017-03-23T18:51:03.257Z,970.64
2017-03-23T18:51:43.830Z,970.65
2017-03-23T18:52:24.409Z,970.64
2017-03-23T18:53:04.986Z,970.7
2017-03-23T18:53:45.634Z,970.7
2017-03-23T18:54:26.212Z,970.7
2017-03-23T18:55:06.787Z,970.73
2017-03-23T18:55:47.399Z,970.79
2017-03-23T18:56:27.950Z,970.78
2017-03-23T18:57:08.559Z,970.76
2017-03-23T18:57:49.126Z,970.79
2017-03-23T18:58:29.710Z,970.8
2017-03-23T18:59:10.326Z,970.83
2017-03-23T18:59:50.872Z,970.83
2017-03-23T19:00:31.439Z,970.86
2017-03-23T19:01:12.025Z,970.89
2017-03-23T19:01:52.614Z,970.87
2017-03-23T19:02:33.187Z,970.87
2017-03-23T19:03:13.773Z,970.9
2017-03-23T19:03:54.372Z,970.91
2017-03-23T19:04:34.963Z,970.96
2017-03-23T19:05:15.538Z,970.98
2017-03-23T19:05:56.121Z,971.02
2017-03-23T19:06:36.702Z,971.03
2017-03-23T19:07:17.280Z,970.96
2017-03-23T19:07:57.862Z,970.98
2017-03-23T19:08:38.451Z,970.99
2017-03-23T19:09:19.029Z,971.04
2017-03-23T19:09:59.613Z,971.02
2017-03-23T19:10:40.189Z,971.02
2017-03-23T19:11:20.778Z,971.03
2017-03-23T19:12:01.364Z,971.04
2017-03-23T19:12:41.942Z,971.05
2017-03-23T19:13:22.569Z,971.05
2017-03-23T19:14:03.132Z,971.07
2017-03-23T19:14:43.716Z,971.04
2017-03-23T19:15:24.299Z,971.05
2017-03-23T19:16:04.901Z,971.04
2017-03-23T19:16:45.491Z,971.1
2017-03-23T19:17:26.072Z,971.12
2017-03-23T19:18:06.631Z,971.15
2017-03-23T19:18:47.194Z,971.15
2017-03-23T19:19:27.763Z,971.19
2017-03-23T19:20:08.345Z,971.21
2017-03-23T19:20:48.966Z,971.26
2017-03-23T19:21:29.542Z,971.29
2017-03-23T19:22:10.142Z,971.31
2017-03-23T19:22:50.793Z,971.3
2017-03-23T19:23:31.421Z,971.29
2017-03-23T19:24:12.001Z,971.31
2017-03-23T19:24:52.584Z,971.26
2017-03-23T19:25:33.162Z,971.24
2017-03-23T19:26:13.747Z,971.25
2017-03-23T19:26:54.330Z,971.26
2017-03-23T19:27:34.919Z,971.21
2017-03-23T19:28:15.496Z,971.21
2017-03-23T19:28:56.085Z,971.21
2017-03-23T19:29:36.667Z,971.2
2017-03-23T19:30:17.252Z,971.26
2017-03-23T19:30:57.832Z,971.25
2017-03-23T19:31:38.407Z,971.26
2017-03-23T19:32:19.012Z,971.27
2017-03-23T19:32:59.598Z,971.32
2017-03-23T19:33:40.171Z,971.34
2017-03-23T19:34:20.772Z,971.36
2017-03-23T19:35:01.318Z,971.37
2017-03-23T19:35:41.885Z,971.41
2017-03-23T19:36:22.459Z,971.47
2017-03-23T19:37:03.042Z,971.52
2017-03-23T19:37:43.618Z,971.51
2017-03-23T19:38:24.198Z,971.49
2017-03-23T19:39:04.784Z,971.52
2017-03-23T19:39:45.371Z,971.49
2017-03-23T19:40:25.951Z,971.49
2017-03-23T19:41:06.532Z,971.52
2017-03-23T19:41:47.113Z,971.49
2017-03-23T19:42:27.695Z,971.49
2017-03-23T19:43:08.272Z,971.54
2017-03-23T19:43:48.842Z,971.51
2017-03-23T19:44:29.425Z,971.55
2017-03-23T19:45:10.007Z,971.51
2017-03-23T19:45:50.594Z,971.56
2017-03-23T19:46:31.173Z,971.54
2017-03-23T19:47:11.757Z,971.56
2017-03-23T19:47:52.336Z,971.55
2017-03-23T19:48:32.914Z,971.53
2017-03-23T19:49:13.486Z,971.56
2017-03-23T19:49:54.082Z,971.52
2017-03-23T19:50:34.666Z,971.53
2017-03-23T19:51:15.247Z,971.54
2017-03-23T19:51:56.020Z,971.53
2017-03-23T19:52:37.014Z,971.58
2017-03-23T19:53:18.126Z,971.52
2017-03-23T19:53:59.419Z,971.55
2017-03-23T19:54:40.747Z,971.59
2017-03-23T19:55:21.906Z,971.58
2017-03-23T19:56:03.109Z,971.59
2017-03-23T19:56:44.014Z,971.61
2017-03-23T19:57:25.029Z,971.6
2017-03-23T19:58:05.942Z,971.64
2017-03-23T19:58:46.998Z,971.63
2017-03-23T19:59:28.135Z,971.69
2017-03-23T20:00:08.712Z,971.65
2017-03-23T20:00:49.293Z,971.64
2017-03-23T20:01:29.869Z,971.62
2017-03-23T20:02:10.474Z,971.64
2017-03-23T20:02:51.096Z,971.63
2017-03-23T20:03:31.680Z,971.63
2017-03-23T20:04:12.264Z,971.62
2017-03-23T20:04:52.853Z,971.63
2017-03-23T20:05:33.438Z,971.59
2017-03-23T20:06:14.028Z,971.59
2017-03-23T20:06:54.606Z,971.62
2017-03-23T20:07:35.190Z,971.61
2017-03-23T20:08:15.778Z,971.64
2017-03-23T20:08:56.395Z,971.63
2017-03-23T20:09:36.971Z,971.62
2017-03-23T20:10:17.541Z,971.62
2017-03-23T20:10:58.118Z,971.6
2017-03-23T20:11:38.697Z,971.68
2017-03-23T20:12:19.266Z,971.71
2017-03-23T20:12:59.847Z,971.74
2017-03-23T20:13:40.425Z,971.75
2017-03-23T20:14:21.001Z,971.78
2017-03-23T20:15:01.591Z,971.81
2017-03-23T20:15:42.183Z,971.82
2017-03-23T20:16:22.758Z,971.82
2017-03-23T20:17:03.325Z,971.8
2017-03-23T20:17:43.910Z,971.82
2017-03-23T20:18:24.491Z,971.75
2017-03-23T20:19:05.104Z,971.81
2017-03-23T20:19:45.682Z,971.85
2017-03-23T20:20:26.269Z,971.83
2017-03-23T20:21:06.850Z,971.83
2017-03-23T20:23:04.586Z,961.21
2017-03-23T20:23:45.167Z,961.19
2017-03-23T20:24:25.743Z,961.22
2017-03-23T20:25:06.334Z,961.26
2017-03-23T20:25:46.909Z,961.26
2017-03-23T20:26:27.501Z,961.29
2017-03-23T20:27:08.079Z,961.24
2017-03-23T20:27:48.663Z,961.29
2017-03-23T20:28:29.242Z,961.32
2017-03-23T20:29:09.817Z,961.31
2017-03-23T20:29:50.397Z,961.31
2017-03-23T20:30:30.984Z,961.32
2017-03-23T20:31:11.559Z,961.26
2017-03-23T20:31:52.142Z,961.32
2017-03-23T20:32:32.706Z,961.28
2017-03-23T20:33:13.286Z,961.3
2017-03-23T20:33:53.877Z,961.28
2017-03-23T20:34:34.443Z,961.32
2017-03-23T20:35:15.019Z,961.32
2017-03-23T20:35:55.599Z,961.26
2017-03-23T20:36:36.181Z,961.26
2017-03-23T20:37:16.770Z,961.28
2017-03-23T20:37:57.390Z,961.29
2017-03-23T20:38:37.931Z,961.33
2017-03-23T20:39:18.516Z,961.31
2017-03-23T20:39:59.094Z,961.32
2017-03-23T20:40:39.674Z,961.28
2017-03-23T20:41:20.255Z,961.3
2017-03-23T20:42:00.833Z,961.35
2017-03-23T20:42:41.415Z,961.35
2017-03-23T20:43:22.000Z,961.35
2017-03-23T20:44:02.584Z,961.36
2017-03-23T20:44:43.168Z,961.34
2017-03-23T20:45:23.749Z,961.33
2017-03-23T20:46:04.329Z,961.34
2017-03-23T20:46:44.907Z,961.32
2017-03-23T20:47:25.508Z,961.35
2017-03-23T20:48:06.070Z,961.34
2017-03-23T20:48:46.644Z,961.33
2017-03-23T20:49:27.229Z,961.38
2017-03-23T20:50:07.794Z,961.31
2017-03-23T20:50:48.374Z,961.37
2017-03-23T20:51:28.960Z,961.35
2017-03-23T20:52:10.652Z,961.36
2017-03-23T20:52:51.228Z,961.36
2017-03-23T20:53:31.807Z,961.42
2017-03-23T20:54:12.391Z,961.37
2017-03-23T20:54:53.880Z,961.45
2017-03-23T20:55:34.463Z,961.47
2017-03-23T20:56:15.049Z,961.45
2017-03-23T20:56:55.626Z,961.47
2017-03-23T20:57:36.217Z,961.48
2017-03-23T20:58:16.791Z,961.5
2017-03-23T20:58:57.360Z,961.45
2017-03-23T20:59:37.948Z,961.4
2017-03-23T21:00:18.533Z,961.42
2017-03-23T21:00:59.110Z,961.4
2017-03-23T21:01:39.690Z,961.34
2017-03-23T21:02:20.267Z,961.32
2017-03-23T21:03:16.780Z,961.29
2017-03-23T21:03:57.364Z,961.28
2017-03-23T21:04:37.943Z,961.25
2017-03-23T21:05:18.547Z,961.3
2017-03-23T21:06:14.092Z,961.31
2017-03-23T21:06:54.672Z,961.26
2017-03-23T21:07:35.245Z,961.22
2017-03-23T21:08:15.831Z,961.21
2017-03-23T21:08:56.415Z,961.17
2017-03-23T21:09:36.986Z,961.15
2017-03-23T21:10:17.553Z,961.16
2017-03-23T21:10:58.125Z,961.18
2017-03-23T21:11:38.706Z,961.18
2017-03-23T21:12:20.114Z,961.19
2017-03-23T21:13:00.695Z,961.18
2017-03-23T21:13:41.280Z,961.17
2017-03-23T21:14:21.866Z,961.15
2017-03-23T21:15:02.453Z,961.12
2017-03-23T21:15:43.018Z,961.13
2017-03-23T21:16:23.603Z,961.13
2017-03-23T21:17:04.177Z,961.13
2017-03-23T21:17:44.756Z,961.19
2017-03-23T21:18:25.339Z,961.19
2017-03-23T21:19:05.912Z,961.26
2017-03-23T21:19:46.498Z,961.27
2017-03-23T21:20:27.074Z,961.3
2017-03-23T21:21:07.660Z,961.36
2017-03-23T21:21:48.238Z,961.43
2017-03-23T21:22:28.806Z,961.44
2017-03-23T21:23:09.373Z,961.45
2017-03-23T21:23:49.957Z,961.53
2017-03-23T21:24:30.538Z,961.51
2017-03-23T21:25:11.117Z,961.53
2017-03-23T21:25:51.706Z,961.57
2017-03-23T21:26:32.285Z,961.6
2017-03-23T21:27:12.876Z,961.67
2017-03-23T21:27:53.446Z,961.68
2017-03-23T21:28:34.040Z,961.71
2017-03-23T21:29:14.622Z,961.7
2017-03-23T21:29:55.212Z,961.7
2017-03-23T21:30:35.798Z,961.71
2017-03-23T21:31:31.304Z,961.71
2017-03-23T21:32:11.899Z,961.7
2017-03-23T21:32:52.481Z,961.7
2017-03-23T21:33:33.050Z,961.68
2017-03-23T21:34:14.123Z,961.61
2017-03-23T21:34:54.706Z,961.56
2017-03-23T21:35:35.283Z,961.59
2017-03-23T21:36:15.865Z,961.55
2017-03-23T21:36:56.446Z,961.51
2017-03-23T21:37:37.031Z,961.44
2017-03-23T21:38:17.614Z,961.47
2017-03-23T21:38:58.196Z,961.37
2017-03-23T21:39:38.782Z,961.43
2017-03-23T21:41:31.391Z,961.33
2017-03-23T21:42:11.974Z,961.33
2017-03-23T21:42:52.556Z,961.32
2017-03-23T21:43:33.141Z,961.34
2017-03-23T21:44:13.716Z,961.35
2017-03-23T21:44:54.303Z,961.32
2017-03-23T21:45:34.883Z,961.26
2017-03-23T21:46:15.471Z,961.23
2017-03-23T21:46:56.048Z,961.23
2017-03-23T21:47:36.630Z,961.24
2017-03-23T21:48:17.208Z,961.21